首页
METAR-TAF:

METAR-TAF

机场 :

Hurlburt Field

Mary Esther, 佛罗里达州, 美国

纬度: 30-25N, 经度: 086-41W, 海拔: 12米

当前天气观测

该预报发布于39分钟前的18:16 UTC
风速11节,风向东南
温度 22°C
湿度 94%
气压 1018 hPa
能見度: 16.1公里
散云层高于300英尺
多云层高于700英尺
多云层高于1500英尺

METAR: KHRT 211816Z 13011KT 10SM SCT003 BKN007 BKN015 22/21 A3005 RMK AO2A CIG 002V007 CIG 004 RWY18 SLP178 $

时间: 12:55 (18:55 UTC)

预报

该预报发布于55分钟前的18:00 UTC
预报有效从21日的 18点(UTC)到 23日的 00点(UTC)
风速10节,风向东南
能見度: 6000
多云层高于300英尺
多云层高于1500英尺
轻雾
短暂存在
从 21日的 19点(UTC)到 21日的 21点(UTC)
能見度: 1600
阴天层高于200英尺
轻雾
成为
从 21日的 21点(UTC)到 21日的 22点(UTC)
风速9节,风向南转南东
能見度: 0800
阴天层高于200英尺
成为
从 21日的 23点(UTC)到 21日的 24点(UTC)
风速7节,风向
能見度: 0400
层高于200英尺
短暂存在
从 22日的 05点(UTC)到 22日的 14点(UTC)
能見度: 0400
层高于100英尺
成为
从 22日的 15点(UTC)到 22日的 16点(UTC)
风速7节,风向南转南东
能見度: 3200
阴天层高于200英尺
轻雾
成为
从 22日的 17点(UTC)到 22日的 18点(UTC)
风速10节,风向南转南东
能見度: 8000
多云层高于500英尺
轻雾

TAF: KHRT 211800Z 2118/2300 14010KT 6000 BR BKN003 BKN015 QNH3002INS TEMPO 2119/2121 1600 BR OVC002 BECMG 2121/2122 16009KT 0800 FG OVC002 QNH3000INS BECMG 2123/2124 17007KT 0400 FG VV002 QNH3001INS TEMPO 2205/2214 0400 FG VV001 BECMG 2215/2216 15007KT 3200 BR OVC002 QNH3011INS BECMG 2217/2218 16010KT 8000 BR BKN005 QNH3012INS TX22/2119Z TN20/2212Z

超过4000个机场的气象观测和天气预报(METAR&TAF报告)。

可查询的气象台以黄色和红色小点在地图上表示。

将鼠标移到小点上方,可查看气象台名称。

然后点击查看天气观测和预报。

如需切换地图:点击带黑十字的绿色按钮放大地图;点击带横线的绿色按钮缩小地图;或者点击绿色箭头查看邻近地区的地图。


METAR-TAF: